sensor_id;sensor_type;location;lat;lon;timestamp;temperature;humidity
64918;HTU21D;52176;44.858;38.372;2022-12-18T00:01:24;5.90;82.18
64918;HTU21D;52176;44.858;38.372;2022-12-18T00:03:51;5.95;82.10
64918;HTU21D;52176;44.858;38.372;2022-12-18T00:06:19;5.94;82.02
64918;HTU21D;52176;44.858;38.372;2022-12-18T00:08:45;5.93;81.97
64918;HTU21D;52176;44.858;38.372;2022-12-18T00:11:13;5.86;81.95
64918;HTU21D;52176;44.858;38.372;2022-12-18T00:13:39;5.82;81.89
64918;HTU21D;52176;44.858;38.372;2022-12-18T00:16:06;5.76;81.96
64918;HTU21D;52176;44.858;38.372;2022-12-18T00:18:32;5.69;81.99
64918;HTU21D;52176;44.858;38.372;2022-12-18T00:20:59;5.65;82.10
64918;HTU21D;52176;44.858;38.372;2022-12-18T00:23:25;5.61;82.34
64918;HTU21D;52176;44.858;38.372;2022-12-18T00:25:51;5.59;82.26
64918;HTU21D;52176;44.858;38.372;2022-12-18T00:28:17;5.56;82.40
64918;HTU21D;52176;44.858;38.372;2022-12-18T00:30:43;5.57;82.27
64918;HTU21D;52176;44.858;38.372;2022-12-18T00:33:09;5.55;82.29
64918;HTU21D;52176;44.858;38.372;2022-12-18T00:35:34;5.56;82.26
64918;HTU21D;52176;44.858;38.372;2022-12-18T00:38:00;5.53;82.17
64918;HTU21D;52176;44.858;38.372;2022-12-18T00:40:26;5.51;82.31
64918;HTU21D;52176;44.858;38.372;2022-12-18T00:42:52;5.49;82.31
64918;HTU21D;52176;44.858;38.372;2022-12-18T00:45:22;5.48;83.15
64918;HTU21D;52176;44.858;38.372;2022-12-18T00:47:51;5.51;82.77
64918;HTU21D;52176;44.858;38.372;2022-12-18T00:50:17;5.52;83.06
64918;HTU21D;52176;44.858;38.372;2022-12-18T00:52:43;5.56;83.07
64918;HTU21D;52176;44.858;38.372;2022-12-18T00:55:09;5.57;82.84
64918;HTU21D;52176;44.858;38.372;2022-12-18T00:57:35;5.61;82.75
64918;HTU21D;52176;44.858;38.372;2022-12-18T01:00:03;5.61;82.65
64918;HTU21D;52176;44.858;38.372;2022-12-18T01:02:29;5.60;82.63
64918;HTU21D;52176;44.858;38.372;2022-12-18T01:04:55;5.59;82.58
64918;HTU21D;52176;44.858;38.372;2022-12-18T01:07:20;5.57;82.67
64918;HTU21D;52176;44.858;38.372;2022-12-18T01:09:46;5.59;82.70
64918;HTU21D;52176;44.858;38.372;2022-12-18T01:12:12;5.61;82.93
64918;HTU21D;52176;44.858;38.372;2022-12-18T01:14:38;5.65;83.29
64918;HTU21D;52176;44.858;38.372;2022-12-18T01:17:04;5.75;83.97
64918;HTU21D;52176;44.858;38.372;2022-12-18T01:19:32;5.89;83.83
64918;HTU21D;52176;44.858;38.372;2022-12-18T01:21:58;5.99;84.00
64918;HTU21D;52176;44.858;38.372;2022-12-18T01:24:24;6.09;83.81
64918;HTU21D;52176;44.858;38.372;2022-12-18T01:26:50;6.14;84.16
64918;HTU21D;52176;44.858;38.372;2022-12-18T01:29:16;6.17;83.39
64918;HTU21D;52176;44.858;38.372;2022-12-18T01:31:42;6.19;83.20
64918;HTU21D;52176;44.858;38.372;2022-12-18T01:34:08;6.21;83.16
64918;HTU21D;52176;44.858;38.372;2022-12-18T01:36:35;6.24;83.00
64918;HTU21D;52176;44.858;38.372;2022-12-18T01:39:03;6.24;82.87
64918;HTU21D;52176;44.858;38.372;2022-12-18T01:41:30;6.22;83.02
64918;HTU21D;52176;44.858;38.372;2022-12-18T01:47:00;6.22;82.99
64918;HTU21D;52176;44.858;38.372;2022-12-18T01:49:26;6.28;83.45
64918;HTU21D;52176;44.858;38.372;2022-12-18T01:51:51;6.31;83.27
64918;HTU21D;52176;44.858;38.372;2022-12-18T01:54:17;6.34;83.02
64918;HTU21D;52176;44.858;38.372;2022-12-18T01:56:43;6.36;82.92
64918;HTU21D;52176;44.858;38.372;2022-12-18T01:59:09;6.35;82.89
64918;HTU21D;52176;44.858;38.372;2022-12-18T02:01:35;6.33;82.72
64918;HTU21D;52176;44.858;38.372;2022-12-18T02:04:22;6.26;82.73
64918;HTU21D;52176;44.858;38.372;2022-12-18T02:07:00;6.21;83.00
64918;HTU21D;52176;44.858;38.372;2022-12-18T02:10:17;6.20;83.01
64918;HTU21D;52176;44.858;38.372;2022-12-18T02:12:18;6.19;82.91
64918;HTU21D;52176;44.858;38.372;2022-12-18T02:14:48;6.14;82.80
64918;HTU21D;52176;44.858;38.372;2022-12-18T02:17:20;6.07;82.81
64918;HTU21D;52176;44.858;38.372;2022-12-18T02:27:27;5.75;82.97
64918;HTU21D;52176;44.858;38.372;2022-12-18T02:29:55;5.69;83.00
64918;HTU21D;52176;44.858;38.372;2022-12-18T02:32:24;5.67;83.00
64918;HTU21D;52176;44.858;38.372;2022-12-18T02:34:51;5.65;82.97
64918;HTU21D;52176;44.858;38.372;2022-12-18T02:37:18;5.61;82.94
64918;HTU21D;52176;44.858;38.372;2022-12-18T02:39:47;5.56;82.92
64918;HTU21D;52176;44.858;38.372;2022-12-18T02:42:14;5.53;82.95
64918;HTU21D;52176;44.858;38.372;2022-12-18T02:44:42;5.47;82.93
64918;HTU21D;52176;44.858;38.372;2022-12-18T02:47:13;5.46;82.91
64918;HTU21D;52176;44.858;38.372;2022-12-18T02:57:18;5.53;83.05
64918;HTU21D;52176;44.858;38.372;2022-12-18T02:59:53;5.57;82.95
64918;HTU21D;52176;44.858;38.372;2022-12-18T03:02:26;5.63;82.97
64918;HTU21D;52176;44.858;38.372;2022-12-18T03:07:56;5.65;82.95
64918;HTU21D;52176;44.858;38.372;2022-12-18T03:10:14;5.64;82.97
64918;HTU21D;52176;44.858;38.372;2022-12-18T03:12:52;5.65;82.92
64918;HTU21D;52176;44.858;38.372;2022-12-18T03:15:24;5.67;82.94
64918;HTU21D;52176;44.858;38.372;2022-12-18T03:18:04;5.70;83.02
64918;HTU21D;52176;44.858;38.372;2022-12-18T03:20:31;5.74;83.36
64918;HTU21D;52176;44.858;38.372;2022-12-18T03:23:01;5.76;83.61
64918;HTU21D;52176;44.858;38.372;2022-12-18T03:25:28;5.77;83.22
64918;HTU21D;52176;44.858;38.372;2022-12-18T03:27:56;5.76;83.50
64918;HTU21D;52176;44.858;38.372;2022-12-18T03:30:23;5.76;83.37
64918;HTU21D;52176;44.858;38.372;2022-12-18T03:35:28;5.75;83.13
64918;HTU21D;52176;44.858;38.372;2022-12-18T03:37:55;5.72;83.06
64918;HTU21D;52176;44.858;38.372;2022-12-18T03:40:34;5.68;83.10
64918;HTU21D;52176;44.858;38.372;2022-12-18T03:43:11;5.65;83.14
64918;HTU21D;52176;44.858;38.372;2022-12-18T03:45:43;5.64;83.36
64918;HTU21D;52176;44.858;38.372;2022-12-18T03:48:17;5.68;83.45
64918;HTU21D;52176;44.858;38.372;2022-12-18T03:50:46;5.77;83.42
64918;HTU21D;52176;44.858;38.372;2022-12-18T03:55:58;5.93;83.44
64918;HTU21D;52176;44.858;38.372;2022-12-18T03:58:31;5.99;83.68
64918;HTU21D;52176;44.858;38.372;2022-12-18T04:01:12;6.05;83.49
64918;HTU21D;52176;44.858;38.372;2022-12-18T04:03:39;6.08;83.27
64918;HTU21D;52176;44.858;38.372;2022-12-18T04:06:06;6.07;83.16
64918;HTU21D;52176;44.858;38.372;2022-12-18T04:08:33;6.05;83.20
64918;HTU21D;52176;44.858;38.372;2022-12-18T04:11:04;6.02;83.19
64918;HTU21D;52176;44.858;38.372;2022-12-18T04:13:35;6.00;83.45
64918;HTU21D;52176;44.858;38.372;2022-12-18T04:16:05;6.02;83.69
64918;HTU21D;52176;44.858;38.372;2022-12-18T04:18:31;6.09;84.07
64918;HTU21D;52176;44.858;38.372;2022-12-18T04:20:58;6.15;83.71
64918;HTU21D;52176;44.858;38.372;2022-12-18T04:23:24;6.21;83.56
64918;HTU21D;52176;44.858;38.372;2022-12-18T04:25:52;6.26;83.39
64918;HTU21D;52176;44.858;38.372;2022-12-18T04:28:30;6.24;83.23
64918;HTU21D;52176;44.858;38.372;2022-12-18T04:30:56;6.26;83.32
64918;HTU21D;52176;44.858;38.372;2022-12-18T04:33:22;6.25;83.55
64918;HTU21D;52176;44.858;38.372;2022-12-18T04:35:47;6.28;83.51
64918;HTU21D;52176;44.858;38.372;2022-12-18T04:38:13;6.40;84.19
64918;HTU21D;52176;44.858;38.372;2022-12-18T04:40:40;6.59;84.05
64918;HTU21D;52176;44.858;38.372;2022-12-18T04:43:12;6.76;84.29
64918;HTU21D;52176;44.858;38.372;2022-12-18T04:45:38;6.86;84.13
64918;HTU21D;52176;44.858;38.372;2022-12-18T04:48:04;7.04;85.11
64918;HTU21D;52176;44.858;38.372;2022-12-18T04:50:30;7.32;84.77
64918;HTU21D;52176;44.858;38.372;2022-12-18T04:52:56;7.50;84.29
64918;HTU21D;52176;44.858;38.372;2022-12-18T04:55:25;7.64;83.61
64918;HTU21D;52176;44.858;38.372;2022-12-18T04:57:51;7.72;83.68
64918;HTU21D;52176;44.858;38.372;2022-12-18T05:00:17;7.88;84.02
64918;HTU21D;52176;44.858;38.372;2022-12-18T05:02:43;8.11;83.71
64918;HTU21D;52176;44.858;38.372;2022-12-18T05:05:09;8.33;83.35
64918;HTU21D;52176;44.858;38.372;2022-12-18T05:07:35;8.57;83.11
64918;HTU21D;52176;44.858;38.372;2022-12-18T05:10:01;8.73;82.49
64918;HTU21D;52176;44.858;38.372;2022-12-18T05:12:26;8.87;82.15
64918;HTU21D;52176;44.858;38.372;2022-12-18T05:14:52;8.96;81.96
64918;HTU21D;52176;44.858;38.372;2022-12-18T05:17:18;9.06;81.91
64918;HTU21D;52176;44.858;38.372;2022-12-18T05:19:44;9.23;81.88
64918;HTU21D;52176;44.858;38.372;2022-12-18T05:22:10;9.40;81.60
64918;HTU21D;52176;44.858;38.372;2022-12-18T05:24:35;9.53;81.41
64918;HTU21D;52176;44.858;38.372;2022-12-18T05:27:01;9.63;81.16
64918;HTU21D;52176;44.858;38.372;2022-12-18T05:29:27;9.66;81.04
64918;HTU21D;52176;44.858;38.372;2022-12-18T05:31:53;9.65;80.97
64918;HTU21D;52176;44.858;38.372;2022-12-18T05:34:18;9.53;80.88
64918;HTU21D;52176;44.858;38.372;2022-12-18T05:36:44;9.38;81.14
64918;HTU21D;52176;44.858;38.372;2022-12-18T05:39:10;9.29;81.41
64918;HTU21D;52176;44.858;38.372;2022-12-18T05:41:36;9.22;81.55
64918;HTU21D;52176;44.858;38.372;2022-12-18T05:44:02;9.20;81.77
64918;HTU21D;52176;44.858;38.372;2022-12-18T05:46:27;9.21;81.82
64918;HTU21D;52176;44.858;38.372;2022-12-18T05:48:54;9.25;81.92
64918;HTU21D;52176;44.858;38.372;2022-12-18T05:51:21;9.32;81.88
64918;HTU21D;52176;44.858;38.372;2022-12-18T05:53:47;9.39;81.84
64918;HTU21D;52176;44.858;38.372;2022-12-18T05:56:15;9.44;81.72
64918;HTU21D;52176;44.858;38.372;2022-12-18T05:58:41;9.47;81.84
64918;HTU21D;52176;44.858;38.372;2022-12-18T06:01:08;9.56;81.77
64918;HTU21D;52176;44.858;38.372;2022-12-18T06:03:34;9.65;81.68
64918;HTU21D;52176;44.858;38.372;2022-12-18T06:06:00;9.72;81.53
64918;HTU21D;52176;44.858;38.372;2022-12-18T06:08:26;9.81;81.53
64918;HTU21D;52176;44.858;38.372;2022-12-18T06:10:52;9.93;81.49
64918;HTU21D;52176;44.858;38.372;2022-12-18T06:13:18;10.07;81.32
64918;HTU21D;52176;44.858;38.372;2022-12-18T06:15:44;10.18;81.17
64918;HTU21D;52176;44.858;38.372;2022-12-18T06:18:10;10.25;81.04
64918;HTU21D;52176;44.858;38.372;2022-12-18T06:20:36;10.35;80.98
64918;HTU21D;52176;44.858;38.372;2022-12-18T06:23:05;10.42;80.94
64918;HTU21D;52176;44.858;38.372;2022-12-18T06:25:31;10.51;80.88
64918;HTU21D;52176;44.858;38.372;2022-12-18T06:27:57;10.58;80.81
64918;HTU21D;52176;44.858;38.372;2022-12-18T06:30:23;10.66;80.75
64918;HTU21D;52176;44.858;38.372;2022-12-18T06:32:49;10.73;80.72
64918;HTU21D;52176;44.858;38.372;2022-12-18T06:35:15;10.84;80.67
64918;HTU21D;52176;44.858;38.372;2022-12-18T06:37:41;10.95;80.61
64918;HTU21D;52176;44.858;38.372;2022-12-18T06:40:07;11.08;80.50
64918;HTU21D;52176;44.858;38.372;2022-12-18T06:42:32;11.16;80.39
64918;HTU21D;52176;44.858;38.372;2022-12-18T06:44:58;11.29;80.43
64918;HTU21D;52176;44.858;38.372;2022-12-18T06:47:24;11.52;80.20
64918;HTU21D;52176;44.858;38.372;2022-12-18T06:49:50;11.75;79.96
64918;HTU21D;52176;44.858;38.372;2022-12-18T06:52:16;11.98;79.72
64918;HTU21D;52176;44.858;38.372;2022-12-18T06:54:42;12.18;79.46
64918;HTU21D;52176;44.858;38.372;2022-12-18T06:57:07;12.33;79.29
64918;HTU21D;52176;44.858;38.372;2022-12-18T06:59:33;12.47;79.20
64918;HTU21D;52176;44.858;38.372;2022-12-18T07:01:59;12.65;79.03
64918;HTU21D;52176;44.858;38.372;2022-12-18T07:04:29;12.84;78.82
64918;HTU21D;52176;44.858;38.372;2022-12-18T07:06:55;13.04;78.59
64918;HTU21D;52176;44.858;38.372;2022-12-18T07:09:21;13.21;78.39
64918;HTU21D;52176;44.858;38.372;2022-12-18T07:11:47;13.38;78.19
64918;HTU21D;52176;44.858;38.372;2022-12-18T07:14:13;13.53;78.08
64918;HTU21D;52176;44.858;38.372;2022-12-18T07:16:38;13.69;77.99
64918;HTU21D;52176;44.858;38.372;2022-12-18T07:19:04;13.88;77.92
64918;HTU21D;52176;44.858;38.372;2022-12-18T07:21:30;14.11;77.76
64918;HTU21D;52176;44.858;38.372;2022-12-18T07:23:56;14.37;77.56
64918;HTU21D;52176;44.858;38.372;2022-12-18T07:26:21;14.74;77.12
64918;HTU21D;52176;44.858;38.372;2022-12-18T07:28:47;15.18;76.56
64918;HTU21D;52176;44.858;38.372;2022-12-18T07:31:15;15.59;75.59
64918;HTU21D;52176;44.858;38.372;2022-12-18T07:33:41;15.98;74.41
64918;HTU21D;52176;44.858;38.372;2022-12-18T07:36:07;16.32;73.86
64918;HTU21D;52176;44.858;38.372;2022-12-18T07:38:33;16.65;72.98
64918;HTU21D;52176;44.858;38.372;2022-12-18T07:41:00;16.99;72.66
64918;HTU21D;52176;44.858;38.372;2022-12-18T07:43:26;17.34;72.08
64918;HTU21D;52176;44.858;38.372;2022-12-18T07:45:52;17.65;69.94
64918;HTU21D;52176;44.858;38.372;2022-12-18T07:48:18;17.92;69.42
64918;HTU21D;52176;44.858;38.372;2022-12-18T07:50:44;18.13;69.77
64918;HTU21D;52176;44.858;38.372;2022-12-18T07:53:09;18.34;67.75
64918;HTU21D;52176;44.858;38.372;2022-12-18T07:55:35;18.49;68.33
64918;HTU21D;52176;44.858;38.372;2022-12-18T07:58:02;18.62;68.28
64918;HTU21D;52176;44.858;38.372;2022-12-18T08:00:28;18.77;68.20
64918;HTU21D;52176;44.858;38.372;2022-12-18T08:02:54;18.92;67.82
64918;HTU21D;52176;44.858;38.372;2022-12-18T08:05:20;19.07;67.55
64918;HTU21D;52176;44.858;38.372;2022-12-18T08:07:46;19.15;66.69
64918;HTU21D;52176;44.858;38.372;2022-12-18T08:10:12;19.22;67.39
64918;HTU21D;52176;44.858;38.372;2022-12-18T08:12:38;19.24;66.84
64918;HTU21D;52176;44.858;38.372;2022-12-18T08:15:04;19.22;62.08
64918;HTU21D;52176;44.858;38.372;2022-12-18T08:17:30;19.18;63.15
64918;HTU21D;52176;44.858;38.372;2022-12-18T08:19:56;19.25;65.73
64918;HTU21D;52176;44.858;38.372;2022-12-18T08:22:21;19.41;65.76
64918;HTU21D;52176;44.858;38.372;2022-12-18T08:24:47;19.59;66.59
64918;HTU21D;52176;44.858;38.372;2022-12-18T08:27:13;19.81;66.99
64918;HTU21D;52176;44.858;38.372;2022-12-18T08:29:39;20.05;66.72
64918;HTU21D;52176;44.858;38.372;2022-12-18T08:32:04;20.21;67.33
64918;HTU21D;52176;44.858;38.372;2022-12-18T08:34:30;20.36;67.65
64918;HTU21D;52176;44.858;38.372;2022-12-18T08:36:56;20.53;67.70
64918;HTU21D;52176;44.858;38.372;2022-12-18T08:39:22;20.61;67.62
64918;HTU21D;52176;44.858;38.372;2022-12-18T08:41:48;20.62;67.72
64918;HTU21D;52176;44.858;38.372;2022-12-18T08:44:33;20.59;66.72
64918;HTU21D;52176;44.858;38.372;2022-12-18T08:47:06;20.55;67.62
64918;HTU21D;52176;44.858;38.372;2022-12-18T08:49:32;20.51;66.79
64918;HTU21D;52176;44.858;38.372;2022-12-18T08:51:58;20.47;67.84
64918;HTU21D;52176;44.858;38.372;2022-12-18T08:54:23;20.40;68.29
64918;HTU21D;52176;44.858;38.372;2022-12-18T08:56:49;20.32;68.77
64918;HTU21D;52176;44.858;38.372;2022-12-18T08:59:16;20.24;69.02
64918;HTU21D;52176;44.858;38.372;2022-12-18T09:01:42;20.05;67.88
64918;HTU21D;52176;44.858;38.372;2022-12-18T09:04:09;19.90;68.72
64918;HTU21D;52176;44.858;38.372;2022-12-18T09:06:35;19.72;67.49
64918;HTU21D;52176;44.858;38.372;2022-12-18T09:09:00;19.57;68.07
64918;HTU21D;52176;44.858;38.372;2022-12-18T09:11:27;19.47;68.91
64918;HTU21D;52176;44.858;38.372;2022-12-18T09:13:53;19.42;68.85
64918;HTU21D;52176;44.858;38.372;2022-12-18T09:16:20;19.36;68.65
64918;HTU21D;52176;44.858;38.372;2022-12-18T09:18:46;19.32;68.39
64918;HTU21D;52176;44.858;38.372;2022-12-18T09:21:13;19.29;66.84
64918;HTU21D;52176;44.858;38.372;2022-12-18T09:23:39;19.22;67.62
64918;HTU21D;52176;44.858;38.372;2022-12-18T09:26:05;19.11;66.58
64918;HTU21D;52176;44.858;38.372;2022-12-18T09:28:31;18.97;66.92
64918;HTU21D;52176;44.858;38.372;2022-12-18T09:30:57;18.83;66.52
64918;HTU21D;52176;44.858;38.372;2022-12-18T09:33:22;18.67;65.63
64918;HTU21D;52176;44.858;38.372;2022-12-18T09:35:48;18.55;66.46
64918;HTU21D;52176;44.858;38.372;2022-12-18T09:38:15;18.46;66.66
64918;HTU21D;52176;44.858;38.372;2022-12-18T09:40:43;18.38;66.46
64918;HTU21D;52176;44.858;38.372;2022-12-18T09:43:20;18.30;65.27
64918;HTU21D;52176;44.858;38.372;2022-12-18T09:45:49;18.28;65.94
64918;HTU21D;52176;44.858;38.372;2022-12-18T09:48:23;18.27;66.19
64918;HTU21D;52176;44.858;38.372;2022-12-18T09:50:50;18.26;65.41
64918;HTU21D;52176;44.858;38.372;2022-12-18T09:53:19;18.24;66.06
64918;HTU21D;52176;44.858;38.372;2022-12-18T09:55:46;18.23;66.35
64918;HTU21D;52176;44.858;38.372;2022-12-18T09:58:20;18.23;66.06
64918;HTU21D;52176;44.858;38.372;2022-12-18T10:00:51;18.19;66.51
64918;HTU21D;52176;44.858;38.372;2022-12-18T10:03:17;18.13;66.29
64918;HTU21D;52176;44.858;38.372;2022-12-18T10:08:32;17.92;67.27
64918;HTU21D;52176;44.858;38.372;2022-12-18T10:13:49;17.72;68.04
64918;HTU21D;52176;44.858;38.372;2022-12-18T10:16:29;17.60;68.20
64918;HTU21D;52176;44.858;38.372;2022-12-18T10:26:39;17.26;69.58
64918;HTU21D;52176;44.858;38.372;2022-12-18T10:29:13;17.21;69.71
64918;HTU21D;52176;44.858;38.372;2022-12-18T10:31:39;17.18;69.86
64918;HTU21D;52176;44.858;38.372;2022-12-18T10:34:08;17.16;69.99
64918;HTU21D;52176;44.858;38.372;2022-12-18T10:36:34;17.13;70.10
64918;HTU21D;52176;44.858;38.372;2022-12-18T10:39:24;17.07;70.17
64918;HTU21D;52176;44.858;38.372;2022-12-18T10:41:47;17.01;70.36
64918;HTU21D;52176;44.858;38.372;2022-12-18T10:44:21;16.96;70.52
64918;HTU21D;52176;44.858;38.372;2022-12-18T10:46:51;16.87;70.63
64918;HTU21D;52176;44.858;38.372;2022-12-18T10:49:22;16.79;70.81
64918;HTU21D;52176;44.858;38.372;2022-12-18T10:51:48;16.73;71.00
64918;HTU21D;52176;44.858;38.372;2022-12-18T10:54:19;16.64;71.10
64918;HTU21D;52176;44.858;38.372;2022-12-18T10:56:46;16.57;71.24
64918;HTU21D;52176;44.858;38.372;2022-12-18T10:59:13;16.48;71.35
64918;HTU21D;52176;44.858;38.372;2022-12-18T11:01:51;16.45;71.43
64918;HTU21D;52176;44.858;38.372;2022-12-18T11:04:21;16.42;71.61
64918;HTU21D;52176;44.858;38.372;2022-12-18T11:06:52;16.41;71.77
64918;HTU21D;52176;44.858;38.372;2022-12-18T11:09:19;16.39;71.96
64918;HTU21D;52176;44.858;38.372;2022-12-18T11:11:51;16.34;72.23
64918;HTU21D;52176;44.858;38.372;2022-12-18T11:14:24;16.30;72.34
64918;HTU21D;52176;44.858;38.372;2022-12-18T11:16:50;16.27;72.68
64918;HTU21D;52176;44.858;38.372;2022-12-18T11:21:49;16.14;73.09
64918;HTU21D;52176;44.858;38.372;2022-12-18T11:24:31;16.03;73.57
64918;HTU21D;52176;44.858;38.372;2022-12-18T11:26:58;15.91;73.81
64918;HTU21D;52176;44.858;38.372;2022-12-18T11:29:33;15.81;74.07
64918;HTU21D;52176;44.858;38.372;2022-12-18T11:34:40;15.57;75.68
64918;HTU21D;52176;44.858;38.372;2022-12-18T11:37:07;15.43;75.70
64918;HTU21D;52176;44.858;38.372;2022-12-18T11:44:38;14.86;77.26
64918;HTU21D;52176;44.858;38.372;2022-12-18T11:47:15;14.63;77.51
64918;HTU21D;52176;44.858;38.372;2022-12-18T11:49:44;14.40;77.99
64918;HTU21D;52176;44.858;38.372;2022-12-18T11:52:18;14.21;77.87
64918;HTU21D;52176;44.858;38.372;2022-12-18T11:54:44;14.05;78.07
64918;HTU21D;52176;44.858;38.372;2022-12-18T12:02:26;13.73;78.88
64918;HTU21D;52176;44.858;38.372;2022-12-18T12:07:41;13.54;78.58
64918;HTU21D;52176;44.858;38.372;2022-12-18T12:12:59;13.38;79.16
64918;HTU21D;52176;44.858;38.372;2022-12-18T12:28:45;12.51;80.64
64918;HTU21D;52176;44.858;38.372;2022-12-18T12:31:28;12.34;80.55
64918;HTU21D;52176;44.858;38.372;2022-12-18T12:38:55;11.98;81.02
64918;HTU21D;52176;44.858;38.372;2022-12-18T12:41:26;11.88;81.14
64918;HTU21D;52176;44.858;38.372;2022-12-18T12:44:14;11.83;81.31
64918;HTU21D;52176;44.858;38.372;2022-12-18T12:46:41;11.75;81.32
64918;HTU21D;52176;44.858;38.372;2022-12-18T12:49:15;11.67;81.38
64918;HTU21D;52176;44.858;38.372;2022-12-18T12:51:43;11.59;81.46
64918;HTU21D;52176;44.858;38.372;2022-12-18T12:54:16;11.52;81.52
64918;HTU21D;52176;44.858;38.372;2022-12-18T12:56:48;11.42;81.49
64918;HTU21D;52176;44.858;38.372;2022-12-18T12:59:19;11.33;81.15
64918;HTU21D;52176;44.858;38.372;2022-12-18T13:01:57;11.27;81.14
64918;HTU21D;52176;44.858;38.372;2022-12-18T13:07:17;11.13;80.94
64918;HTU21D;52176;44.858;38.372;2022-12-18T13:12:29;11.03;80.76
64918;HTU21D;52176;44.858;38.372;2022-12-18T13:15:24;10.96;80.78
64918;HTU21D;52176;44.858;38.372;2022-12-18T13:18:03;10.87;80.78
64918;HTU21D;52176;44.858;38.372;2022-12-18T13:20:34;10.78;81.17
64918;HTU21D;52176;44.858;38.372;2022-12-18T13:23:00;10.68;81.16
64918;HTU21D;52176;44.858;38.372;2022-12-18T13:25:30;10.59;81.27
64918;HTU21D;52176;44.858;38.372;2022-12-18T13:27:59;10.52;81.15
64918;HTU21D;52176;44.858;38.372;2022-12-18T13:40:56;10.04;81.82
64918;HTU21D;52176;44.858;38.372;2022-12-18T13:43:23;9.94;81.95
64918;HTU21D;52176;44.858;38.372;2022-12-18T13:45:58;9.84;81.94
64918;HTU21D;52176;44.858;38.372;2022-12-18T13:48:25;9.74;82.27
64918;HTU21D;52176;44.858;38.372;2022-12-18T13:50:52;9.62;82.29
64918;HTU21D;52176;44.858;38.372;2022-12-18T13:53:29;9.53;82.11
64918;HTU21D;52176;44.858;38.372;2022-12-18T13:55:56;9.47;81.96
64918;HTU21D;52176;44.858;38.372;2022-12-18T13:58:22;9.40;82.29
64918;HTU21D;52176;44.858;38.372;2022-12-18T14:00:48;9.34;82.42
64918;HTU21D;52176;44.858;38.372;2022-12-18T14:03:21;9.27;82.49
64918;HTU21D;52176;44.858;38.372;2022-12-18T14:05:51;9.20;82.78
64918;HTU21D;52176;44.858;38.372;2022-12-18T14:08:17;9.11;82.61
64918;HTU21D;52176;44.858;38.372;2022-12-18T14:10:47;9.03;82.52
64918;HTU21D;52176;44.858;38.372;2022-12-18T14:13:46;8.97;82.51
64918;HTU21D;52176;44.858;38.372;2022-12-18T14:16:06;8.90;82.70
64918;HTU21D;52176;44.858;38.372;2022-12-18T14:18:50;8.85;82.59
64918;HTU21D;52176;44.858;38.372;2022-12-18T14:24:02;8.73;82.96
64918;HTU21D;52176;44.858;38.372;2022-12-18T14:26:29;8.66;83.45
64918;HTU21D;52176;44.858;38.372;2022-12-18T14:28:55;8.59;83.49
64918;HTU21D;52176;44.858;38.372;2022-12-18T14:31:23;8.55;83.71
64918;HTU21D;52176;44.858;38.372;2022-12-18T14:33:49;8.47;83.69
64918;HTU21D;52176;44.858;38.372;2022-12-18T14:36:36;8.43;83.54
64918;HTU21D;52176;44.858;38.372;2022-12-18T14:39:01;8.36;83.90
64918;HTU21D;52176;44.858;38.372;2022-12-18T14:41:27;8.33;83.51
64918;HTU21D;52176;44.858;38.372;2022-12-18T14:43:54;8.28;83.54
64918;HTU21D;52176;44.858;38.372;2022-12-18T14:46:31;8.23;83.71
64918;HTU21D;52176;44.858;38.372;2022-12-18T14:48:59;8.19;83.50
64918;HTU21D;52176;44.858;38.372;2022-12-18T14:51:26;8.17;83.55
64918;HTU21D;52176;44.858;38.372;2022-12-18T14:53:56;8.12;83.67
64918;HTU21D;52176;44.858;38.372;2022-12-18T14:58:49;8.03;84.23
64918;HTU21D;52176;44.858;38.372;2022-12-18T15:03:48;7.93;83.81
64918;HTU21D;52176;44.858;38.372;2022-12-18T15:06:17;7.89;84.16
64918;HTU21D;52176;44.858;38.372;2022-12-18T15:08:43;7.84;84.00
64918;HTU21D;52176;44.858;38.372;2022-12-18T15:11:25;7.78;83.75
64918;HTU21D;52176;44.858;38.372;2022-12-18T15:13:51;7.73;83.86
64918;HTU21D;52176;44.858;38.372;2022-12-18T15:16:17;7.71;83.70
64918;HTU21D;52176;44.858;38.372;2022-12-18T15:18:43;7.68;83.64
64918;HTU21D;52176;44.858;38.372;2022-12-18T15:21:17;7.64;83.69
64918;HTU21D;52176;44.858;38.372;2022-12-18T15:26:09;7.57;83.79
64918;HTU21D;52176;44.858;38.372;2022-12-18T15:33:31;7.47;84.03
64918;HTU21D;52176;44.858;38.372;2022-12-18T15:35:58;7.45;84.53
64918;HTU21D;52176;44.858;38.372;2022-12-18T15:38:25;7.43;84.69
64918;HTU21D;52176;44.858;38.372;2022-12-18T15:40:55;7.37;84.91
64918;HTU21D;52176;44.858;38.372;2022-12-18T15:43:22;7.31;85.06
64918;HTU21D;52176;44.858;38.372;2022-12-18T15:46:01;7.25;85.36
64918;HTU21D;52176;44.858;38.372;2022-12-18T15:48:27;7.20;85.87
64918;HTU21D;52176;44.858;38.372;2022-12-18T15:50:53;7.14;86.15
64918;HTU21D;52176;44.858;38.372;2022-12-18T15:53:22;7.09;86.03
64918;HTU21D;52176;44.858;38.372;2022-12-18T15:55:49;7.03;85.64
64918;HTU21D;52176;44.858;38.372;2022-12-18T15:58:33;6.99;85.46
64918;HTU21D;52176;44.858;38.372;2022-12-18T16:00:59;6.97;85.49
64918;HTU21D;52176;44.858;38.372;2022-12-18T16:03:26;6.95;85.55
64918;HTU21D;52176;44.858;38.372;2022-12-18T16:05:52;6.91;85.42
64918;HTU21D;52176;44.858;38.372;2022-12-18T16:08:18;6.87;85.50
64918;HTU21D;52176;44.858;38.372;2022-12-18T16:10:44;6.85;85.39
64918;HTU21D;52176;44.858;38.372;2022-12-18T16:13:10;6.83;85.33
64918;HTU21D;52176;44.858;38.372;2022-12-18T16:15:37;6.80;85.30
64918;HTU21D;52176;44.858;38.372;2022-12-18T16:18:02;6.78;85.32
64918;HTU21D;52176;44.858;38.372;2022-12-18T16:20:28;6.74;85.50
64918;HTU21D;52176;44.858;38.372;2022-12-18T16:22:54;6.72;85.45
64918;HTU21D;52176;44.858;38.372;2022-12-18T16:25:24;6.67;85.51
64918;HTU21D;52176;44.858;38.372;2022-12-18T16:27:50;6.63;85.38
64918;HTU21D;52176;44.858;38.372;2022-12-18T16:30:17;6.58;85.59
64918;HTU21D;52176;44.858;38.372;2022-12-18T16:32:44;6.51;86.05
64918;HTU21D;52176;44.858;38.372;2022-12-18T16:35:11;6.43;85.92
64918;HTU21D;52176;44.858;38.372;2022-12-18T16:37:38;6.38;86.01
64918;HTU21D;52176;44.858;38.372;2022-12-18T16:40:04;6.33;85.91
64918;HTU21D;52176;44.858;38.372;2022-12-18T16:42:31;6.27;86.19
64918;HTU21D;52176;44.858;38.372;2022-12-18T16:44:58;6.24;86.02
64918;HTU21D;52176;44.858;38.372;2022-12-18T16:47:24;6.20;85.90
64918;HTU21D;52176;44.858;38.372;2022-12-18T16:49:50;6.19;85.86
64918;HTU21D;52176;44.858;38.372;2022-12-18T16:52:18;6.16;85.98
64918;HTU21D;52176;44.858;38.372;2022-12-18T16:54:44;6.13;86.14
64918;HTU21D;52176;44.858;38.372;2022-12-18T16:57:13;6.09;86.17
64918;HTU21D;52176;44.858;38.372;2022-12-18T16:59:39;6.04;85.93
64918;HTU21D;52176;44.858;38.372;2022-12-18T17:02:06;6.01;85.98
64918;HTU21D;52176;44.858;38.372;2022-12-18T17:04:36;5.97;85.93
64918;HTU21D;52176;44.858;38.372;2022-12-18T17:07:01;5.94;85.87